Time,TemperatureF,DewpointF,PressureIn,WindDirection,WindDirectionDegrees,WindSpeedMPH,WindSpeedGustMPH,Humidity,HourlyPrecipIn,Conditions,Clouds,dailyrainin,SoftwareType,DateUTC
2013-10-07 00:00:00,46.5,44.6,29.65,SSW,197,1.0,4.0,93,0.00, +TSGR FG,SKC,-99.99,VWS V12.07,2013-10-07 05:00:00,
2013-10-07 00:05:00,46.5,44.6,29.65,West,275,0.0,3.0,93,0.00, +TSGR FG,SKC,-99.99,VWS V12.07,2013-10-07 05:05:00,
2013-10-07 00:10:00,46.5,44.6,29.65,SW,229,0.0,0.0,93,0.00, +TSGR FG,SKC,-99.99,VWS V12.07,2013-10-07 05:10:00,
2013-10-07 00:15:00,46.5,44.6,29.65,South,180,0.0,5.0,93,0.00, +TSGR FG,SKC,-99.99,VWS V12.07,2013-10-07 05:15:00,
2013-10-07 00:20:00,46.5,44.6,29.65,SW,227,0.0,0.0,93,0.00, +TSGR FG,SKC,-99.99,VWS V12.07,2013-10-07 05:20:00,
2013-10-07 00:25:00,46.5,44.6,29.65,SSW,195,1.0,3.0,93,0.00, +TSGR FG,SKC,-99.99,VWS V12.07,2013-10-07 05:25:00,
2013-10-07 00:30:00,46.5,44.6,29.65,SW,233,0.0,0.0,93,0.00, +TSGR FG,SKC,-99.99,VWS V12.07,2013-10-07 05:30:00,
2013-10-07 00:35:00,46.5,44.6,29.64,South,190,0.0,3.0,93,0.00, +TSGR FG,SKC,-99.99,VWS V12.07,2013-10-07 05:35:00,
2013-10-07 00:40:00,46.6,44.7,29.64,South,190,1.0,3.0,93,0.00, +TSGR FG,SKC,-99.99,VWS V12.07,2013-10-07 05:40:00,
2013-10-07 00:45:00,46.6,44.7,29.64,South,190,0.0,3.0,93,0.00, +TSGR FG,SKC,-99.99,VWS V12.07,2013-10-07 05:45:00,
2013-10-07 00:50:00,46.7,44.5,29.64,South,182,0.0,0.0,92,0.00, +TSGR FG,SKC,-99.99,VWS V12.07,2013-10-07 05:50:00,
2013-10-07 00:55:00,46.7,44.5,29.64,South,182,0.0,2.0,92,0.00, +TSGR FG,SKC,-99.99,VWS V12.07,2013-10-07 05:55:00,
2013-10-07 01:00:00,46.7,44.5,29.64,South,182,0.0,0.0,92,0.00, +TSGR FG,SKC,-99.99,VWS V12.07,2013-10-07 06:00:00,
2013-10-07 01:05:00,46.7,44.5,29.64,South,182,0.0,2.0,92,0.00, +TSGR FG,SKC,-99.99,VWS V12.07,2013-10-07 06:05:00,
2013-10-07 01:10:00,46.7,44.5,29.63,South,183,0.0,0.0,92,0.00, +TSGR FG,SKC,-99.99,VWS V12.07,2013-10-07 06:10:00,
2013-10-07 01:15:00,46.7,44.5,29.64,South,185,0.0,3.0,92,0.00, +TSGR FG,SKC,-99.99,VWS V12.07,2013-10-07 06:15:00,
2013-10-07 01:20:00,46.7,44.5,29.64,South,185,0.0,0.0,92,0.00, +TSGR FG,SKC,-99.99,VWS V12.07,2013-10-07 06:20:00,
2013-10-07 01:25:00,46.7,44.8,29.65,South,185,1.0,1.0,93,0.00, +TSGR FG,SKC,-99.99,VWS V12.07,2013-10-07 06:25:00,
2013-10-07 01:30:00,46.7,44.8,29.65,SW,236,1.0,1.0,93,0.00, +TSGR FG,SKC,-99.99,VWS V12.07,2013-10-07 06:30:00,
2013-10-07 01:35:00,46.7,44.8,29.65,SW,235,0.0,3.0,93,0.00, +TSGR FG,SKC,-99.99,VWS V12.07,2013-10-07 06:35:00,
2013-10-07 01:40:00,46.8,44.9,29.65,NW,317,0.0,1.0,93,0.00, +TSGR FG,SKC,-99.99,VWS V12.07,2013-10-07 06:40:00,
2013-10-07 01:45:00,46.8,44.9,29.65,SSE,150,0.0,4.0,93,0.00, +TSGR FG,SKC,-99.99,VWS V12.07,2013-10-07 06:45:00,
2013-10-07 01:50:00,46.9,45.0,29.65,ENE,76,0.0,1.0,93,0.00, +TSGR FG,SKC,-99.99,VWS V12.07,2013-10-07 06:50:00,
2013-10-07 01:55:00,46.9,45.0,29.65,SE,146,0.0,3.0,93,0.00, +TSGR FG,SKC,-99.99,VWS V12.07,2013-10-07 06:55:00,
2013-10-07 02:00:00,46.8,44.9,29.65,SSW,213,0.0,0.0,93,0.00, +TSGR FG,SKC,-99.99,VWS V12.07,2013-10-07 07:00:00,
2013-10-07 02:05:00,46.8,44.9,29.65,NNW,338,3.0,4.0,93,0.00, +TSGR FG,SKC,-99.99,VWS V12.07,2013-10-07 07:05:00,
2013-10-07 02:10:00,46.8,44.9,29.65,South,169,2.0,2.0,93,0.00, +TSGR FG,SKC,-99.99,VWS V12.07,2013-10-07 07:10:00,
2013-10-07 02:15:00,46.8,44.9,29.65,SSE,150,2.0,4.0,93,0.00, +TSGR FG,SKC,-99.99,VWS V12.07,2013-10-07 07:15:00,
2013-10-07 02:20:00,46.8,44.9,29.65,SSW,209,2.0,2.0,93,0.00, +TSGR FG,SKC,-99.99,VWS V12.07,2013-10-07 07:20:00,
2013-10-07 02:25:00,46.8,44.9,29.64,WSW,248,1.0,6.0,93,0.00, +TSGR FG,SKC,-99.99,VWS V12.07,2013-10-07 07:25:00,
2013-10-07 02:30:00,46.8,44.9,29.64,SSE,164,2.0,2.0,93,0.00, +TSGR FG,SKC,-99.99,VWS V12.07,2013-10-07 07:30:00,
2013-10-07 02:35:00,46.8,44.9,29.64,SSE,155,1.0,5.0,93,0.00, +TSGR FG,SKC,-99.99,VWS V12.07,2013-10-07 07:35:00,
2013-10-07 02:40:00,46.8,44.9,29.64,SW,229,1.0,1.0,93,0.00, +TSGR FG,SKC,-99.99,VWS V12.07,2013-10-07 07:40:00,
2013-10-07 02:45:00,46.8,44.9,29.64,ENE,61,2.0,3.0,93,0.00, +TSGR FG,SKC,-99.99,VWS V12.07,2013-10-07 07:45:00,
2013-10-07 02:50:00,46.7,44.8,29.65,South,171,1.0,1.0,93,0.00, +TSGR FG,SKC,-99.99,VWS V12.07,2013-10-07 07:50:00,
2013-10-07 02:55:00,46.8,44.9,29.65,ESE,113,1.0,5.0,93,0.00, +TSGR FG,SKC,-99.99,VWS V12.07,2013-10-07 07:55:00,
2013-10-07 03:00:00,46.8,44.9,29.65,NW,325,0.0,0.0,93,0.00, +TSGR FG,SKC,-99.99,VWS V12.07,2013-10-07 08:00:00,
2013-10-07 03:05:00,46.8,44.9,29.65,SW,221,1.0,4.0,93,0.00, +TSGR FG,SKC,-99.99,VWS V12.07,2013-10-07 08:05:00,
2013-10-07 03:10:00,46.8,44.9,29.65,WSW,238,2.0,3.0,93,0.00, +TSGR FG,SKC,-99.99,VWS V12.07,2013-10-07 08:10:00,
2013-10-07 03:15:00,46.8,44.9,29.65,ESE,118,0.0,5.0,93,0.00, +TSGR FG,SKC,-99.99,VWS V12.07,2013-10-07 08:15:00,
2013-10-07 03:20:00,46.8,44.9,29.65,NNW,328,0.0,1.0,93,0.00, +TSGR FG,SKC,-99.99,VWS V12.07,2013-10-07 08:20:00,
2013-10-07 03:25:00,46.8,44.9,29.65,SSW,192,2.0,3.0,93,0.00, +TSGR FG,SKC,-99.99,VWS V12.07,2013-10-07 08:25:00,
2013-10-07 03:30:00,46.8,44.9,29.65,South,185,1.0,1.0,93,0.00, +TSGR FG,SKC,-99.99,VWS V12.07,2013-10-07 08:30:00,
2013-10-07 03:35:00,46.8,44.9,29.65,SSW,194,0.0,4.0,93,0.00, +TSGR FG,SKC,-99.99,VWS V12.07,2013-10-07 08:35:00,
2013-10-07 03:40:00,46.8,44.9,29.65,NNW,348,0.0,1.0,93,0.00, +TSGR FG,SKC,-99.99,VWS V12.07,2013-10-07 08:40:00,
2013-10-07 03:45:00,46.8,44.9,29.65,SSE,153,1.0,2.0,93,0.00, +TSGR FG,SKC,-99.99,VWS V12.07,2013-10-07 08:45:00,
2013-10-07 03:50:00,46.7,44.8,29.65,SW,231,0.0,0.0,93,0.00, +TSGR FG,SKC,-99.99,VWS V12.07,2013-10-07 08:50:00,
2013-10-07 03:55:00,46.7,44.8,29.65,South,180,1.0,4.0,93,0.00, +TSGR FG,SKC,-99.99,VWS V12.07,2013-10-07 08:55:00,
2013-10-07 04:00:00,46.6,44.7,29.65,South,184,2.0,2.0,93,0.00, +TSGR FG,SKC,-99.99,VWS V12.07,2013-10-07 09:00:00,
2013-10-07 04:05:00,46.5,44.6,29.65,SSW,205,2.0,3.0,93,0.00, +TSGR FG,SKC,-99.99,VWS V12.07,2013-10-07 09:05:00,
2013-10-07 04:10:00,46.4,44.5,29.66,SSW,211,1.0,1.0,93,0.00, +TSGR FG,SKC,-99.99,VWS V12.07,2013-10-07 09:10:00,
2013-10-07 04:15:00,46.2,44.3,29.66,SE,143,0.0,4.0,93,0.00, +TSGR FG,SKC,-99.99,VWS V12.07,2013-10-07 09:15:00,
2013-10-07 04:20:00,46.1,44.2,29.66,SSE,148,4.0,5.0,93,0.00, +TSGR FG,SKC,-99.99,VWS V12.07,2013-10-07 09:20:00,
2013-10-07 04:25:00,46.1,44.2,29.66,SW,215,1.0,5.0,93,0.00, +TSGR FG,SKC,-99.99,VWS V12.07,2013-10-07 09:25:00,
2013-10-07 04:30:00,46.2,44.3,29.66,SW,223,1.0,1.0,93,0.00, +TSGR FG,SKC,-99.99,VWS V12.07,2013-10-07 09:30:00,
2013-10-07 04:35:00,46.2,44.3,29.66,SW,226,1.0,5.0,93,0.00, +TSGR FG,SKC,-99.99,VWS V12.07,2013-10-07 09:35:00,
2013-10-07 04:40:00,46.2,44.3,29.66,NW,309,1.0,1.0,93,0.00, +TSGR FG,SKC,-99.99,VWS V12.07,2013-10-07 09:40:00,
2013-10-07 04:45:00,46.3,44.4,29.67,SW,221,1.0,6.0,93,0.00, +TSGR FG,SKC,-99.99,VWS V12.07,2013-10-07 09:45:00,
2013-10-07 04:50:00,46.3,44.4,29.67,East,88,3.0,3.0,93,0.00, +TSGR FG,SKC,-99.99,VWS V12.07,2013-10-07 09:50:00,
2013-10-07 04:55:00,46.4,44.5,29.67,ESE,123,1.0,3.0,93,0.00, +TSGR FG,SKC,-99.99,VWS V12.07,2013-10-07 09:55:00,
2013-10-07 05:00:00,46.5,44.6,29.67,South,182,2.0,2.0,93,0.00, +TSGR FG,SKC,-99.99,VWS V12.07,2013-10-07 10:00:00,
2013-10-07 05:05:00,46.6,44.7,29.67,SE,144,0.0,6.0,93,0.00, +TSGR FG,SKC,-99.99,VWS V12.07,2013-10-07 10:05:00,
2013-10-07 05:10:00,46.7,44.8,29.67,NE,37,0.0,1.0,93,0.00, +TSGR FG,SKC,-99.99,VWS V12.07,2013-10-07 10:10:00,
2013-10-07 05:15:00,46.8,44.9,29.67,South,185,1.0,5.0,93,0.00, +TSGR FG,SKC,-99.99,VWS V12.07,2013-10-07 10:15:00,
2013-10-07 05:20:00,46.8,44.9,29.68,East,93,1.0,1.0,93,0.00, +TSGR FG,SKC,-99.99,VWS V12.07,2013-10-07 10:20:00,
2013-10-07 05:25:00,46.9,45.0,29.68,SSW,213,2.0,4.0,93,0.00, +TSGR FG,SKC,-99.99,VWS V12.07,2013-10-07 10:25:00,
2013-10-07 05:30:00,46.9,45.0,29.68,NW,315,3.0,5.0,93,0.00, +TSGR FG,SKC,-99.99,VWS V12.07,2013-10-07 10:30:00,
2013-10-07 05:35:00,46.9,45.0,29.68,ENE,70,2.0,5.0,93,0.00, +TSGR FG,SKC,-99.99,VWS V12.07,2013-10-07 10:35:00,
2013-10-07 05:40:00,46.9,45.0,29.68,SSW,202,0.0,0.0,93,0.00, +TSGR FG,SKC,-99.99,VWS V12.07,2013-10-07 10:40:00,
2013-10-07 05:45:00,46.9,45.0,29.68,South,186,2.0,5.0,93,0.00, +TSGR FG,SKC,-99.99,VWS V12.07,2013-10-07 10:45:00,
2013-10-07 05:50:00,46.9,45.3,29.69,South,188,0.0,0.0,94,0.00, +TSGR FG,SKC,-99.99,VWS V12.07,2013-10-07 10:50:00,
2013-10-07 05:55:00,46.9,45.3,29.69,NW,321,1.0,4.0,94,0.01, +TSGR FG,SKC,-99.99,VWS V12.07,2013-10-07 10:55:00,
2013-10-07 06:00:00,46.9,45.3,29.69,South,178,4.0,4.0,94,0.01, +TSGR FG,SKC,-99.99,VWS V12.07,2013-10-07 11:00:00,
2013-10-07 06:05:00,46.9,45.5,29.69,NW,323,0.0,4.0,95,0.01, +TSGR FG,SKC,-99.99,VWS V12.07,2013-10-07 11:05:00,
2013-10-07 06:10:00,47.0,45.7,29.69,ESE,107,1.0,1.0,95,0.01, +TSGR FG,SKC,-99.99,VWS V12.07,2013-10-07 11:10:00,
2013-10-07 06:15:00,47.1,45.7,29.69,WNW,299,1.0,4.0,95,0.01, +TSGR FG,SKC,-99.99,VWS V12.07,2013-10-07 11:15:00,
2013-10-07 06:20:00,47.2,45.8,29.70,SSW,192,1.0,2.0,95,0.01, +TSGR FG,SKC,-99.99,VWS V12.07,2013-10-07 11:20:00,
2013-10-07 06:25:00,47.3,45.9,29.70,NNW,334,0.0,4.0,95,0.01, +TSGR FG,SKC,-99.99,VWS V12.07,2013-10-07 11:25:00,
2013-10-07 06:30:00,47.3,45.9,29.70,North,5,0.0,0.0,95,0.01, +TSGR FG,SKC,-99.99,VWS V12.07,2013-10-07 11:30:00,
2013-10-07 06:35:00,47.4,46.0,29.70,NNE,17,1.0,1.0,95,0.01, +TSGR FG,SKC,-99.99,VWS V12.07,2013-10-07 11:35:00,
2013-10-07 06:40:00,47.5,46.1,29.70,WSW,238,3.0,3.0,95,0.01, +TSGR FG,SKC,-99.99,VWS V12.07,2013-10-07 11:40:00,
2013-10-07 06:45:00,47.6,46.2,29.70,WNW,284,0.0,3.0,95,0.01, +TSGR FG,SKC,-99.99,VWS V12.07,2013-10-07 11:45:00,
2013-10-07 06:50:00,47.7,46.6,29.70,ESE,123,1.0,1.0,96,0.01, +TSGR FG,SKC,-99.99,VWS V12.07,2013-10-07 11:50:00,
2013-10-07 06:55:00,47.8,46.7,29.71,SW,219,0.0,4.0,96,0.01, +TSGR FG,SKC,-99.99,VWS V12.07,2013-10-07 11:55:00,
2013-10-07 07:00:00,47.9,46.8,29.71,SW,218,0.0,0.0,96,0.01, +TSGR FG,SKC,-99.99,VWS V12.07,2013-10-07 12:00:00,
2013-10-07 07:05:00,48.0,46.9,29.71,SW,215,2.0,3.0,96,0.00, +TSGR FG,SKC,-99.99,VWS V12.07,2013-10-07 12:05:00,
2013-10-07 07:10:00,48.1,47.0,29.72,SSE,165,1.0,1.0,96,0.00, +TSGR FG,SKC,-99.99,VWS V12.07,2013-10-07 12:10:00,
2013-10-07 07:15:00,48.2,47.1,29.72,SW,231,0.0,4.0,96,0.00, +TSGR FG,SKC,-99.99,VWS V12.07,2013-10-07 12:15:00,
2013-10-07 07:20:00,48.3,47.2,29.72,NW,311,1.0,2.0,96,0.00, +TSGR FG,SKC,-99.99,VWS V12.07,2013-10-07 12:20:00,
2013-10-07 07:25:00,48.5,47.4,29.72,WNW,300,1.0,6.0,96,0.00, +TSGR FG,SKC,-99.99,VWS V12.07,2013-10-07 12:25:00,
2013-10-07 07:30:00,48.6,47.5,29.72,WNW,297,2.0,2.0,96,0.00, +TSGR FG,SKC,-99.99,VWS V12.07,2013-10-07 12:30:00,
2013-10-07 07:35:00,48.8,47.7,29.73,North,349,1.0,6.0,96,0.00, +TSGR FG,SKC,-99.99,VWS V12.07,2013-10-07 12:35:00,
2013-10-07 07:40:00,49.0,47.9,29.73,North,350,2.0,2.0,96,0.00, +TSGR FG,SKC,-99.99,VWS V12.07,2013-10-07 12:40:00,
2013-10-07 07:45:00,49.1,48.0,29.73,NW,311,0.0,6.0,96,0.00, +TSGR FG,SKC,-99.99,VWS V12.07,2013-10-07 12:45:00,
2013-10-07 07:50:00,49.2,48.1,29.73,NW,317,0.0,0.0,96,0.00, +TSGR FG,SKC,-99.99,VWS V12.07,2013-10-07 12:50:00,
2013-10-07 08:00:00,49.2,48.1,29.74,NNW,338,6.0,6.0,96,0.00, +TSGR FG,SKC,-99.99,VWS V12.07,2013-10-07 13:00:00,
2013-10-07 08:05:00,49.2,48.1,29.74,NW,310,5.0,8.0,96,0.00, +TSGR FG,SKC,-99.99,VWS V12.07,2013-10-07 13:05:00,
2013-10-07 08:10:00,49.2,48.1,29.75,NNW,338,4.0,5.0,96,0.00, +TSGR FG,SKC,-99.99,VWS V12.07,2013-10-07 13:10:00,
2013-10-07 08:15:00,49.3,48.2,29.75,NNW,331,4.0,7.0,96,0.00, +TSGR FG,SKC,-99.99,VWS V12.07,2013-10-07 13:15:00,
2013-10-07 08:20:00,49.6,48.5,29.75,NW,326,3.0,3.0,96,0.00, +TSGR FG,SKC,-99.99,VWS V12.07,2013-10-07 13:20:00,
2013-10-07 08:25:00,49.7,48.6,29.75,NW,326,5.0,5.0,96,0.00, +TSGR FG,SKC,-99.99,VWS V12.07,2013-10-07 13:25:00,
2013-10-07 08:30:00,49.8,48.4,29.75,NNE,32,3.0,5.0,95,0.00, +TSGR FG,SKC,-99.99,VWS V12.07,2013-10-07 13:30:00,
2013-10-07 08:35:00,49.9,48.2,29.76,NNW,347,4.0,9.0,94,0.00, +TSGR FG,SKC,-99.99,VWS V12.07,2013-10-07 13:35:00,
2013-10-07 08:40:00,50.2,48.3,29.76,NW,321,0.0,3.0,93,0.00, +TSGR FG,SKC,-99.99,VWS V12.07,2013-10-07 13:40:00,
2013-10-07 08:45:00,50.5,48.3,29.76,NW,323,5.0,6.0,92,0.00, +TSGR FG,SKC,-99.99,VWS V12.07,2013-10-07 13:45:00,
2013-10-07 08:50:00,50.6,47.8,29.76,North,350,5.0,6.0,90,0.00, +TSGR FG,SKC,-99.99,VWS V12.07,2013-10-07 13:50:00,
2013-10-07 08:55:00,50.9,48.1,29.77,NW,307,4.0,8.0,90,0.00, +TSGR FG,SKC,-99.99,VWS V12.07,2013-10-07 13:55:00,
2013-10-07 09:00:00,51.0,47.6,29.77,WNW,300,5.0,5.0,88,0.00, +TSGR FG,SKC,-99.99,VWS V12.07,2013-10-07 14:00:00,
2013-10-07 09:05:00,51.1,47.7,29.77,NNW,327,7.0,8.0,88,0.00, +TSGR FG,SKC,-99.99,VWS V12.07,2013-10-07 14:05:00,
2013-10-07 09:10:00,51.3,47.6,29.77,North,5,2.0,2.0,87,0.00, +TSGR FG,SKC,-99.99,VWS V12.07,2013-10-07 14:10:00,
2013-10-07 09:15:00,51.5,47.5,29.77,NNW,341,5.0,9.0,86,0.00, +TSGR FG,SKC,-99.99,VWS V12.07,2013-10-07 14:15:00,
2013-10-07 09:20:00,51.8,47.4,29.78,North,5,3.0,4.0,85,0.00, +TSGR FG,SKC,-99.99,VWS V12.07,2013-10-07 14:20:00,
2013-10-07 09:25:00,51.9,47.5,29.78,NNE,26,1.0,7.0,85,0.00, +TSGR FG,SKC,-99.99,VWS V12.07,2013-10-07 14:25:00,
2013-10-07 09:30:00,52.2,47.5,29.78,NNW,348,7.0,7.0,84,0.00, +TSGR FG,SKC,-99.99,VWS V12.07,2013-10-07 14:30:00,
2013-10-07 09:35:00,52.0,47.0,29.78,NW,307,2.0,12.0,83,0.00, +TSGR FG,SKC,-99.99,VWS V12.07,2013-10-07 14:35:00,
2013-10-07 09:45:00,52.5,47.2,29.79,WNW,290,5.0,11.0,82,0.00, +TSGR FG,SKC,-99.99,VWS V12.07,2013-10-07 14:45:00,
2013-10-07 09:50:00,52.9,47.9,29.79,NNW,337,3.0,3.0,83,0.00, +TSGR FG,SKC,-99.99,VWS V12.07,2013-10-07 14:50:00,
2013-10-07 09:55:00,53.4,48.0,29.79,NW,304,5.0,7.0,82,0.00, +TSGR FG,SKC,-99.99,VWS V12.07,2013-10-07 14:55:00,
2013-10-07 10:00:00,53.3,47.3,29.80,NNE,19,3.0,6.0,80,0.00, +TSGR FG,SKC,-99.99,VWS V12.07,2013-10-07 15:00:00,
2013-10-07 10:05:00,53.4,47.4,29.80,NNW,329,8.0,9.0,80,0.00, +TSGR FG,SKC,-99.99,VWS V12.07,2013-10-07 15:05:00,
2013-10-07 10:10:00,53.9,47.9,29.80,WNW,294,3.0,3.0,80,0.00, +TSGR FG,SKC,-99.99,VWS V12.07,2013-10-07 15:10:00,
2013-10-07 10:15:00,54.3,47.9,29.81,NW,322,5.0,9.0,79,0.00, +TSGR FG,SKC,-99.99,VWS V12.07,2013-10-07 15:15:00,
2013-10-07 10:20:00,54.8,48.4,29.81,North,5,2.0,3.0,79,0.00, +TSGR FG,SKC,-99.99,VWS V12.07,2013-10-07 15:20:00,
2013-10-07 10:25:00,54.6,47.5,29.81,NNW,338,3.0,10.0,77,0.00, +TSGR FG,SKC,-99.99,VWS V12.07,2013-10-07 15:25:00,
2013-10-07 10:30:00,54.7,48.3,29.81,WNW,292,4.0,4.0,79,0.00, +TSGR FG,SKC,-99.99,VWS V12.07,2013-10-07 15:30:00,
2013-10-07 10:35:00,55.2,48.8,29.82,North,349,5.0,5.0,79,0.00, +TSGR FG,SKC,-99.99,VWS V12.07,2013-10-07 15:35:00,
2013-10-07 10:40:00,55.5,48.4,29.82,West,274,3.0,3.0,77,0.00, +TSGR FG,SKC,-99.99,VWS V12.07,2013-10-07 15:40:00,
2013-10-07 10:45:00,55.7,48.6,29.82,NW,321,5.0,7.0,77,0.00, +TSGR FG,SKC,-99.99,VWS V12.07,2013-10-07 15:45:00,
2013-10-07 10:50:00,55.8,48.4,29.82,NW,309,5.0,6.0,76,0.00, +TSGR FG,SKC,-99.99,VWS V12.07,2013-10-07 15:50:00,
2013-10-07 10:55:00,55.7,47.9,29.83,North,355,1.0,8.0,75,0.00, +TSGR FG,SKC,-99.99,VWS V12.07,2013-10-07 15:55:00,
2013-10-07 11:00:00,56.1,48.7,29.83,North,360,5.0,7.0,76,0.00, +TSGR FG,SKC,-99.99,VWS V12.07,2013-10-07 16:00:00,
2013-10-07 11:05:00,56.5,49.7,29.83,SE,137,0.0,7.0,78,0.00, +TSGR FG,SKC,-99.99,VWS V12.07,2013-10-07 16:05:00,
2013-10-07 11:10:00,57.0,49.2,29.83,WNW,296,1.0,2.0,75,0.00, +TSGR FG,SKC,-99.99,VWS V12.07,2013-10-07 16:10:00,
2013-10-07 11:15:00,57.1,48.5,29.83,NNW,329,3.0,7.0,73,0.00, +TSGR FG,SKC,-99.99,VWS V12.07,2013-10-07 16:15:00,
2013-10-07 11:20:00,57.2,48.6,29.84,WNW,293,6.0,10.0,73,0.00, +TSGR FG,SKC,-99.99,VWS V12.07,2013-10-07 16:20:00,
2013-10-07 11:25:00,57.1,48.2,29.84,NNW,331,1.0,10.0,72,0.00, +TSGR FG,SKC,-99.99,VWS V12.07,2013-10-07 16:25:00,
2013-10-07 11:30:00,57.3,48.7,29.84,North,350,4.0,4.0,73,0.00, +TSGR FG,SKC,-99.99,VWS V12.07,2013-10-07 16:30:00,
2013-10-07 11:35:00,57.5,48.9,29.84,SSE,161,2.0,7.0,73,0.00, +TSGR FG,SKC,-99.99,VWS V12.07,2013-10-07 16:35:00,
2013-10-07 11:40:00,57.8,49.6,29.84,NNW,334,4.0,6.0,74,0.00, +TSGR FG,SKC,-99.99,VWS V12.07,2013-10-07 16:40:00,
2013-10-07 11:45:00,57.7,49.1,29.85,NNE,15,4.0,8.0,73,0.00, +TSGR FG,SKC,-99.99,VWS V12.07,2013-10-07 16:45:00,
2013-10-07 11:50:00,57.8,49.2,29.85,NNE,18,1.0,1.0,73,0.00, +TSGR FG,SKC,-99.99,VWS V12.07,2013-10-07 16:50:00,
2013-10-07 11:55:00,58.2,49.2,29.85,NW,321,3.0,7.0,72,0.00, +TSGR FG,SKC,-99.99,VWS V12.07,2013-10-07 16:55:00,
2013-10-07 12:05:00,58.1,49.1,29.85,East,89,1.0,7.0,72,0.00, +TSGR FG,SKC,-99.99,VWS V12.07,2013-10-07 17:05:00,
2013-10-07 12:10:00,58.5,48.8,29.85,NNW,331,3.0,3.0,70,0.00, +TSGR FG,SKC,-99.99,VWS V12.07,2013-10-07 17:10:00,
2013-10-07 12:15:00,59.0,50.0,29.85,East,89,5.0,7.0,72,0.00, +TSGR FG,SKC,-99.99,VWS V12.07,2013-10-07 17:15:00,
2013-10-07 12:20:00,59.3,49.9,29.85,NE,52,1.0,1.0,71,0.00, +TSGR FG,SKC,-99.99,VWS V12.07,2013-10-07 17:20:00,
2013-10-07 12:25:00,59.5,49.7,29.85,NNW,334,1.0,8.0,70,0.00, +TSGR FG,SKC,-99.99,VWS V12.07,2013-10-07 17:25:00,
2013-10-07 12:30:00,59.7,49.5,29.85,South,169,4.0,4.0,69,0.00, +TSGR FG,SKC,-99.99,VWS V12.07,2013-10-07 17:30:00,
2013-10-07 12:35:00,59.8,50.4,29.85,North,349,0.0,7.0,71,0.00, +TSGR FG,SKC,-99.99,VWS V12.07,2013-10-07 17:35:00,
2013-10-07 12:40:00,59.9,49.3,29.85,SE,136,1.0,4.0,68,0.00, +TSGR FG,SKC,-99.99,VWS V12.07,2013-10-07 17:40:00,
2013-10-07 12:45:00,60.2,49.2,29.85,NNW,343,3.0,5.0,67,0.00, +TSGR FG,SKC,-99.99,VWS V12.07,2013-10-07 17:45:00,
2013-10-07 12:50:00,60.3,49.3,29.85,SSE,147,0.0,1.0,67,0.00, +TSGR FG,SKC,-99.99,VWS V12.07,2013-10-07 17:50:00,
2013-10-07 12:55:00,60.5,49.5,29.86,ENE,70,1.0,6.0,67,0.00, +TSGR FG,SKC,-99.99,VWS V12.07,2013-10-07 17:55:00,
2013-10-07 13:05:00,61.0,49.2,29.86,ENE,71,1.0,10.0,65,0.00, +TSGR FG,SKC,-99.99,VWS V12.07,2013-10-07 18:05:00,
2013-10-07 13:10:00,60.8,47.7,29.85,NW,316,5.0,6.0,62,0.00, +TSGR FG,SKC,-99.99,VWS V12.07,2013-10-07 18:10:00,
2013-10-07 13:15:00,60.7,46.8,29.86,NNE,24,0.0,7.0,60,0.00, +TSGR FG,SKC,-99.99,VWS V12.07,2013-10-07 18:15:00,
2013-10-07 13:20:00,60.8,48.1,29.85,NW,319,0.0,1.0,63,0.00, +TSGR FG,SKC,-99.99,VWS V12.07,2013-10-07 18:20:00,
2013-10-07 13:25:00,61.0,49.2,29.86,West,273,6.0,6.0,65,0.00, +TSGR FG,SKC,-99.99,VWS V12.07,2013-10-07 18:25:00,
2013-10-07 13:30:00,61.1,47.1,29.86,NNW,344,2.0,6.0,60,0.00, +TSGR FG,SKC,-99.99,VWS V12.07,2013-10-07 18:30:00,
2013-10-07 13:35:00,61.0,47.5,29.86,NNW,348,1.0,7.0,61,0.00, +TSGR FG,SKC,-99.99,VWS V12.07,2013-10-07 18:35:00,
2013-10-07 13:40:00,60.9,46.9,29.86,NW,316,2.0,3.0,60,0.00, +TSGR FG,SKC,-99.99,VWS V12.07,2013-10-07 18:40:00,
2013-10-07 13:45:00,61.5,48.8,29.86,SSW,202,2.0,4.0,63,0.00, +TSGR FG,SKC,-99.99,VWS V12.07,2013-10-07 18:45:00,
2013-10-07 13:50:00,61.8,48.2,29.86,West,261,0.0,0.0,61,0.00, +TSGR FG,SKC,-99.99,VWS V12.07,2013-10-07 18:50:00,
2013-10-07 13:55:00,62.0,48.8,29.86,NNW,346,2.0,4.0,62,0.00, +TSGR FG,SKC,-99.99,VWS V12.07,2013-10-07 18:55:00,
2013-10-07 14:00:00,62.1,47.6,29.86,North,355,5.0,10.0,59,0.00, +TSGR FG,SKC,-99.99,VWS V12.07,2013-10-07 19:00:00,
2013-10-07 14:05:00,61.9,47.4,29.86,NNW,333,9.0,10.0,59,0.00, +TSGR FG,SKC,-99.99,VWS V12.07,2013-10-07 19:05:00,
2013-10-07 14:10:00,62.3,47.8,29.86,NNE,14,3.0,3.0,59,0.00, +TSGR FG,SKC,-99.99,VWS V12.07,2013-10-07 19:10:00,
2013-10-07 14:15:00,62.5,47.1,29.87,NW,324,4.0,9.0,57,0.00, +TSGR FG,SKC,-99.99,VWS V12.07,2013-10-07 19:15:00,
2013-10-07 14:20:00,62.1,46.7,29.87,WNW,293,3.0,3.0,57,0.00, +TSGR FG,SKC,-99.99,VWS V12.07,2013-10-07 19:20:00,
2013-10-07 14:25:00,62.3,48.2,29.87,WNW,284,3.0,7.0,60,0.00, +TSGR FG,SKC,-99.99,VWS V12.07,2013-10-07 19:25:00,
2013-10-07 14:30:00,62.3,47.8,29.87,NNW,338,1.0,1.0,59,0.00, +TSGR FG,SKC,-99.99,VWS V12.07,2013-10-07 19:30:00,
2013-10-07 14:35:00,62.1,47.6,29.87,NW,319,1.0,5.0,59,0.00, +TSGR FG,SKC,-99.99,VWS V12.07,2013-10-07 19:35:00,
2013-10-07 14:40:00,61.8,47.3,29.87,SW,225,2.0,4.0,59,0.00, +TSGR FG,SKC,-99.99,VWS V12.07,2013-10-07 19:40:00,
2013-10-07 14:45:00,62.2,47.3,29.87,North,355,5.0,6.0,58,0.00, +TSGR FG,SKC,-99.99,VWS V12.07,2013-10-07 19:45:00,
2013-10-07 14:50:00,62.4,47.9,29.88,SSW,207,4.0,7.0,59,0.00, +TSGR FG,SKC,-99.99,VWS V12.07,2013-10-07 19:50:00,
2013-10-07 14:55:00,62.8,47.4,29.88,SE,146,2.0,9.0,57,0.00, +TSGR FG,SKC,-99.99,VWS V12.07,2013-10-07 19:55:00,
2013-10-07 15:00:00,62.7,47.3,29.88,NNE,15,3.0,5.0,57,0.00, +TSGR FG,SKC,-99.99,VWS V12.07,2013-10-07 20:00:00,
2013-10-07 15:05:00,63.2,47.3,29.88,WSW,258,0.0,7.0,56,0.00, +TSGR FG,SKC,-99.99,VWS V12.07,2013-10-07 20:05:00,
2013-10-07 15:15:00,63.9,47.0,29.88,NW,316,2.0,9.0,54,0.00, +TSGR FG,SKC,-99.99,VWS V12.07,2013-10-07 20:15:00,
2013-10-07 15:25:00,63.2,47.3,29.88,South,190,4.0,6.0,56,0.00, +TSGR FG,SKC,-99.99,VWS V12.07,2013-10-07 20:25:00,
2013-10-07 15:30:00,63.6,47.6,29.88,SW,232,0.0,1.0,56,0.00, +TSGR FG,SKC,-99.99,VWS V12.07,2013-10-07 20:30:00,
2013-10-07 15:35:00,64.1,47.6,29.87,NNW,329,3.0,5.0,55,0.00, +TSGR FG,SKC,-99.99,VWS V12.07,2013-10-07 20:35:00,
2013-10-07 15:40:00,64.7,47.7,29.88,SSW,195,2.0,3.0,54,0.00, +TSGR FG,SKC,-99.99,VWS V12.07,2013-10-07 20:40:00,
2013-10-07 15:50:00,65.5,48.4,29.88,South,186,7.0,7.0,54,0.00, +TSGR FG,SKC,-99.99,VWS V12.07,2013-10-07 20:50:00,
2013-10-07 15:55:00,65.4,48.3,29.88,NNW,342,3.0,9.0,54,0.00, +TSGR FG,SKC,-99.99,VWS V12.07,2013-10-07 20:55:00,
2013-10-07 16:00:00,64.9,47.4,29.88,NE,36,0.0,0.0,53,0.00, +TSGR FG,SKC,-99.99,VWS V12.07,2013-10-07 21:00:00,
2013-10-07 16:05:00,64.7,47.7,29.88,SSW,202,3.0,5.0,54,0.00, +TSGR FG,SKC,-99.99,VWS V12.07,2013-10-07 21:05:00,
2013-10-07 16:10:00,64.6,47.6,29.88,South,184,0.0,0.0,54,0.00, +TSGR FG,SKC,-99.99,VWS V12.07,2013-10-07 21:10:00,
2013-10-07 16:15:00,64.7,47.2,29.88,South,187,0.0,4.0,53,0.00, +TSGR FG,SKC,-99.99,VWS V12.07,2013-10-07 21:15:00,
2013-10-07 16:20:00,64.8,46.8,29.88,SW,236,1.0,4.0,52,0.00, +TSGR FG,SKC,-99.99,VWS V12.07,2013-10-07 21:20:00,
2013-10-07 16:25:00,64.8,47.3,29.88,West,269,2.0,5.0,53,0.00, +TSGR FG,SKC,-99.99,VWS V12.07,2013-10-07 21:25:00,
2013-10-07 16:30:00,64.9,46.9,29.88,NNW,342,1.0,1.0,52,0.00, +TSGR FG,SKC,-99.99,VWS V12.07,2013-10-07 21:30:00,
2013-10-07 16:40:00,64.5,45.5,29.88,NW,321,1.0,4.0,50,0.00, +TSGR FG,SKC,-99.99,VWS V12.07,2013-10-07 21:40:00,
2013-10-07 16:45:00,64.3,45.8,29.89,NNW,330,3.0,5.0,51,0.00, +TSGR FG,SKC,-99.99,VWS V12.07,2013-10-07 21:45:00,
2013-10-07 16:50:00,64.2,46.2,29.89,NNW,327,0.0,1.0,52,0.00, +TSGR FG,SKC,-99.99,VWS V12.07,2013-10-07 21:50:00,
2013-10-07 16:55:00,64.0,46.0,29.89,NNW,343,1.0,6.0,52,0.00, +TSGR FG,SKC,-99.99,VWS V12.07,2013-10-07 21:55:00,
2013-10-07 17:00:00,63.9,45.4,29.89,WSW,246,1.0,1.0,51,0.00, +TSGR FG,SKC,-99.99,VWS V12.07,2013-10-07 22:00:00,
2013-10-07 17:05:00,63.7,45.2,29.89,NE,39,5.0,5.0,51,0.00, +TSGR FG,SKC,-99.99,VWS V12.07,2013-10-07 22:05:00,
2013-10-07 17:10:00,63.6,45.2,29.89,NW,321,4.0,4.0,51,0.00, +TSGR FG,SKC,-99.99,VWS V12.07,2013-10-07 22:10:00,
2013-10-07 17:15:00,63.4,45.5,29.89,NNE,13,1.0,4.0,52,0.00, +TSGR FG,SKC,-99.99,VWS V12.07,2013-10-07 22:15:00,
2013-10-07 17:20:00,63.2,46.3,29.89,NNW,329,0.0,0.0,54,0.00, +TSGR FG,SKC,-99.99,VWS V12.07,2013-10-07 22:20:00,
2013-10-07 17:25:00,62.9,45.0,29.89,NNW,329,2.0,5.0,52,0.00, +TSGR FG,SKC,-99.99,VWS V12.07,2013-10-07 22:25:00,
2013-10-07 17:30:00,62.8,45.4,29.89,NW,326,2.0,2.0,53,0.00, +TSGR FG,SKC,-99.99,VWS V12.07,2013-10-07 22:30:00,
2013-10-07 17:35:00,62.7,46.3,29.89,WNW,285,0.0,2.0,55,0.00, +TSGR FG,SKC,-99.99,VWS V12.07,2013-10-07 22:35:00,
2013-10-07 17:40:00,62.5,46.1,29.90,WNW,285,1.0,1.0,55,0.00, +TSGR FG,SKC,-99.99,VWS V12.07,2013-10-07 22:40:00,
2013-10-07 17:45:00,62.2,45.8,29.90,North,355,0.0,4.0,55,0.00, +TSGR FG,SKC,-99.99,VWS V12.07,2013-10-07 22:45:00,
2013-10-07 17:50:00,62.0,46.1,29.90,NE,46,1.0,1.0,56,0.00, +TSGR FG,SKC,-99.99,VWS V12.07,2013-10-07 22:50:00,
2013-10-07 17:55:00,61.6,46.2,29.90,NNE,30,0.0,1.0,57,0.00, +TSGR FG,SKC,-99.99,VWS V12.07,2013-10-07 22:55:00,
2013-10-07 18:00:00,61.2,46.8,29.91,NNE,30,0.0,1.0,59,0.00, +TSGR FG,SKC,-99.99,VWS V12.07,2013-10-07 23:00:00,
2013-10-07 18:05:00,60.7,46.3,29.91,NNE,30,0.0,0.0,59,0.00, +TSGR FG,SKC,-99.99,VWS V12.07,2013-10-07 23:05:00,
2013-10-07 18:10:00,60.2,46.3,29.91,NNE,30,0.0,0.0,60,0.00, +TSGR FG,SKC,-99.99,VWS V12.07,2013-10-07 23:10:00,
2013-10-07 18:15:00,59.6,46.6,29.91,NNE,30,0.0,0.0,62,0.00, +TSGR FG,SKC,-99.99,VWS V12.07,2013-10-07 23:15:00,
2013-10-07 18:20:00,59.1,46.1,29.91,NNE,30,0.0,0.0,62,0.00, +TSGR FG,SKC,-99.99,VWS V12.07,2013-10-07 23:20:00,
2013-10-07 18:25:00,58.8,46.7,29.92,NNE,30,0.0,0.0,64,0.00, +TSGR FG,SKC,-99.99,VWS V12.07,2013-10-07 23:25:00,
2013-10-07 18:30:00,58.3,47.0,29.92,NNE,30,0.0,0.0,66,0.00, +TSGR FG,SKC,-99.99,VWS V12.07,2013-10-07 23:30:00,
2013-10-07 18:35:00,57.7,46.4,29.92,NNE,30,0.0,0.0,66,0.00, +TSGR FG,SKC,-99.99,VWS V12.07,2013-10-07 23:35:00,
2013-10-07 18:40:00,57.1,46.7,29.92,NNE,30,0.0,0.0,68,0.00, +TSGR FG,SKC,-99.99,VWS V12.07,2013-10-07 23:40:00,
2013-10-07 18:45:00,56.5,47.2,29.92,NNE,30,0.0,0.0,71,0.00, +TSGR FG,SKC,-99.99,VWS V12.07,2013-10-07 23:45:00,
2013-10-07 18:50:00,55.8,47.3,29.92,NNE,30,0.0,0.0,73,0.00, +TSGR FG,SKC,-99.99,VWS V12.07,2013-10-07 23:50:00,
2013-10-07 18:55:00,55.2,47.1,29.93,NNE,30,0.0,0.0,74,0.00, +TSGR FG,SKC,-99.99,VWS V12.07,2013-10-07 23:55:00,
2013-10-07 19:05:00,54.2,46.8,29.93,NNE,30,0.0,0.0,76,0.00, +TSGR FG,SKC,-99.99,VWS V12.07,2013-10-08 00:05:00,
2013-10-07 19:10:00,53.8,46.8,29.93,NNE,30,0.0,0.0,77,0.00, +TSGR FG,SKC,-99.99,VWS V12.07,2013-10-08 00:10:00,
2013-10-07 19:15:00,53.3,46.6,29.93,NNE,30,0.0,0.0,78,0.00, +TSGR FG,SKC,-99.99,VWS V12.07,2013-10-08 00:15:00,
2013-10-07 19:20:00,52.9,46.6,29.93,NNE,30,0.0,0.0,79,0.00, +TSGR FG,SKC,-99.99,VWS V12.07,2013-10-08 00:20:00,
2013-10-07 19:25:00,52.5,46.5,29.93,NNE,30,0.0,0.0,80,0.00, +TSGR FG,SKC,-99.99,VWS V12.07,2013-10-08 00:25:00,
2013-10-07 19:30:00,52.2,46.5,29.94,NNE,30,0.0,0.0,81,0.00, +TSGR FG,SKC,-99.99,VWS V12.07,2013-10-08 00:30:00,
2013-10-07 19:35:00,51.8,46.2,29.94,NNE,30,0.0,0.0,81,0.00, +TSGR FG,SKC,-99.99,VWS V12.07,2013-10-08 00:35:00,
2013-10-07 19:40:00,51.5,46.2,29.94,NNE,30,0.0,0.0,82,0.00, +TSGR FG,SKC,-99.99,VWS V12.07,2013-10-08 00:40:00,
2013-10-07 19:45:00,51.1,46.1,29.94,NNE,30,0.0,0.0,83,0.00, +TSGR FG,SKC,-99.99,VWS V12.07,2013-10-08 00:45:00,
2013-10-07 19:50:00,50.8,46.2,29.94,NNE,30,0.0,0.0,84,0.00, +TSGR FG,SKC,-99.99,VWS V12.07,2013-10-08 00:50:00,
2013-10-07 19:55:00,50.6,46.0,29.95,NNE,30,0.0,0.0,84,0.00, +TSGR FG,SKC,-99.99,VWS V12.07,2013-10-08 00:55:00,
2013-10-07 20:00:00,50.4,46.1,29.95,NNE,30,0.0,0.0,85,0.00, +TSGR FG,SKC,-99.99,VWS V12.07,2013-10-08 01:00:00,
2013-10-07 20:05:00,50.2,46.2,29.95,NNE,30,0.0,0.0,86,0.00, +TSGR FG,SKC,-99.99,VWS V12.07,2013-10-08 01:05:00,
2013-10-07 20:10:00,50.0,46.0,29.95,NNE,30,0.0,0.0,86,0.00, +TSGR FG,SKC,-99.99,VWS V12.07,2013-10-08 01:10:00,
2013-10-07 20:15:00,49.9,46.2,29.95,NNE,30,0.0,0.0,87,0.00, +TSGR FG,SKC,-99.99,VWS V12.07,2013-10-08 01:15:00,
2013-10-07 20:20:00,49.7,46.3,29.96,NNE,30,0.0,0.0,88,0.00, +TSGR FG,SKC,-99.99,VWS V12.07,2013-10-08 01:20:00,
2013-10-07 20:25:00,49.6,46.2,29.96,NNE,30,0.0,0.0,88,0.00, +TSGR FG,SKC,-99.99,VWS V12.07,2013-10-08 01:25:00,
2013-10-07 20:30:00,49.4,46.3,29.96,NNE,30,0.0,0.0,89,0.00, +TSGR FG,SKC,-99.99,VWS V12.07,2013-10-08 01:30:00,
2013-10-07 20:35:00,49.4,46.3,29.97,NNE,30,0.0,0.0,89,0.00, +TSGR FG,SKC,-99.99,VWS V12.07,2013-10-08 01:35:00,
2013-10-07 20:40:00,49.2,46.4,29.97,NNE,30,0.0,0.0,90,0.00, +TSGR FG,SKC,-99.99,VWS V12.07,2013-10-08 01:40:00,
2013-10-07 20:45:00,49.1,46.3,29.97,NNE,30,0.0,0.0,90,0.00, +TSGR FG,SKC,-99.99,VWS V12.07,2013-10-08 01:45:00,
2013-10-07 20:50:00,49.0,46.5,29.97,NNE,30,0.0,0.0,91,0.00, +TSGR FG,SKC,-99.99,VWS V12.07,2013-10-08 01:50:00,
2013-10-07 20:55:00,48.8,46.3,29.97,NNE,30,0.0,0.0,91,0.00, +TSGR FG,SKC,-99.99,VWS V12.07,2013-10-08 01:55:00,
2013-10-07 21:00:00,48.5,46.0,29.98,NNE,30,0.0,0.0,91,0.00, +TSGR FG,SKC,-99.99,VWS V12.07,2013-10-08 02:00:00,
2013-10-07 21:05:00,48.3,45.8,29.98,NNE,30,0.0,0.0,91,0.00, +TSGR FG,SKC,-99.99,VWS V12.07,2013-10-08 02:05:00,
2013-10-07 21:10:00,48.2,46.0,29.98,NNE,30,0.0,0.0,92,0.00, +TSGR FG,SKC,-99.99,VWS V12.07,2013-10-08 02:10:00,
2013-10-07 21:15:00,48.1,45.9,29.98,NNE,30,0.0,0.0,92,0.00, +TSGR FG,SKC,-99.99,VWS V12.07,2013-10-08 02:15:00,
2013-10-07 21:20:00,48.0,45.8,29.99,NNE,30,0.0,0.0,92,0.00, +TSGR FG,SKC,-99.99,VWS V12.07,2013-10-08 02:20:00,
2013-10-07 21:25:00,47.8,45.6,29.99,NNE,30,0.0,0.0,92,0.00, +TSGR FG,SKC,-99.99,VWS V12.07,2013-10-08 02:25:00,
2013-10-07 21:30:00,47.6,45.4,29.99,NNE,30,0.0,0.0,92,0.00, +TSGR FG,SKC,-99.99,VWS V12.07,2013-10-08 02:30:00,
2013-10-07 21:35:00,47.3,45.1,29.99,NNE,30,0.0,0.0,92,0.00, +TSGR FG,SKC,-99.99,VWS V12.07,2013-10-08 02:35:00,
2013-10-07 21:40:00,47.3,45.4,29.99,NNE,30,0.0,0.0,93,0.00, +TSGR FG,SKC,-99.99,VWS V12.07,2013-10-08 02:40:00,
2013-10-07 21:45:00,47.4,45.5,29.99,NNE,30,0.0,0.0,93,0.00, +TSGR FG,SKC,-99.99,VWS V12.07,2013-10-08 02:45:00,
2013-10-07 21:50:00,47.3,45.4,29.99,NNE,30,0.0,0.0,93,0.00, +TSGR FG,SKC,-99.99,VWS V12.07,2013-10-08 02:50:00,
2013-10-07 21:55:00,47.2,45.3,30.00,NNE,30,0.0,0.0,93,0.00, +TSGR FG,SKC,-99.99,VWS V12.07,2013-10-08 02:55:00,
2013-10-07 22:00:00,47.2,45.6,30.00,NNE,30,0.0,0.0,94,0.00, +TSGR FG,SKC,-99.99,VWS V12.07,2013-10-08 03:00:00,
2013-10-07 22:05:00,47.2,45.6,30.00,NNE,30,0.0,0.0,94,0.00, +TSGR FG,SKC,-99.99,VWS V12.07,2013-10-08 03:05:00,
2013-10-07 22:10:00,47.1,45.5,30.00,NNE,30,0.0,0.0,94,0.00, +TSGR FG,SKC,-99.99,VWS V12.07,2013-10-08 03:10:00,
2013-10-07 22:15:00,47.0,45.4,30.00,NNE,30,0.0,0.0,94,0.00, +TSGR FG,SKC,-99.99,VWS V12.07,2013-10-08 03:15:00,
2013-10-07 22:20:00,46.9,45.3,30.01,NNE,30,0.0,0.0,94,0.00, +TSGR FG,SKC,-99.99,VWS V12.07,2013-10-08 03:20:00,
2013-10-07 22:25:00,46.8,45.2,30.01,NNE,30,0.0,0.0,94,0.00, +TSGR FG,SKC,-99.99,VWS V12.07,2013-10-08 03:25:00,
2013-10-07 22:30:00,46.5,44.9,30.01,NNE,30,0.0,0.0,94,0.00, +TSGR FG,SKC,-99.99,VWS V12.07,2013-10-08 03:30:00,
2013-10-07 22:35:00,46.3,44.7,30.01,NNE,30,0.0,0.0,94,0.00, +TSGR FG,SKC,-99.99,VWS V12.07,2013-10-08 03:35:00,
2013-10-07 22:40:00,46.2,44.6,30.01,NNE,30,0.0,0.0,94,0.00, +TSGR FG,SKC,-99.99,VWS V12.07,2013-10-08 03:40:00,
2013-10-07 22:45:00,46.4,45.0,30.01,NNE,30,0.0,0.0,95,0.00, +TSGR FG,SKC,-99.99,VWS V12.07,2013-10-08 03:45:00,
2013-10-07 22:50:00,46.5,45.2,30.01,NNE,30,0.0,0.0,95,0.00, +TSGR FG,SKC,-99.99,VWS V12.07,2013-10-08 03:50:00,
2013-10-07 22:55:00,46.4,45.0,30.02,NNE,30,0.0,0.0,95,0.00, +TSGR FG,SKC,-99.99,VWS V12.07,2013-10-08 03:55:00,
2013-10-07 23:00:00,46.3,45.0,30.01,NNE,30,0.0,0.0,95,0.00, +TSGR FG,SKC,-99.99,VWS V12.07,2013-10-08 04:00:00,
2013-10-07 23:05:00,46.0,44.4,30.01,NNE,30,0.0,0.0,94,0.00, +TSGR FG,SKC,-99.99,VWS V12.07,2013-10-08 04:05:00,
2013-10-07 23:10:00,45.8,44.2,30.02,NNE,30,0.0,0.0,94,0.00, +TSGR FG,SKC,-99.99,VWS V12.07,2013-10-08 04:10:00,
2013-10-07 23:15:00,45.8,44.5,30.02,NNE,30,0.0,0.0,95,0.00, +TSGR FG,SKC,-99.99,VWS V12.07,2013-10-08 04:15:00,
2013-10-07 23:20:00,45.7,44.3,30.02,NNE,30,0.0,0.0,95,0.00, +TSGR FG,SKC,-99.99,VWS V12.07,2013-10-08 04:20:00,
2013-10-07 23:25:00,45.6,44.2,30.02,NNE,30,0.0,0.0,95,0.00, +TSGR FG,SKC,-99.99,VWS V12.07,2013-10-08 04:25:00,
2013-10-07 23:30:00,45.5,44.2,30.02,NNE,30,0.0,0.0,95,0.00, +TSGR FG,SKC,-99.99,VWS V12.07,2013-10-08 04:30:00,
2013-10-07 23:35:00,45.5,44.2,30.02,NNE,30,0.0,0.0,95,0.00, +TSGR FG,SKC,-99.99,VWS V12.07,2013-10-08 04:35:00,
2013-10-07 23:40:00,45.5,44.2,30.02,NNE,30,0.0,0.0,95,0.00, +TSGR FG,SKC,-99.99,VWS V12.07,2013-10-08 04:40:00,
2013-10-07 23:45:00,45.4,44.0,30.02,NNE,30,0.0,0.0,95,0.00, +TSGR FG,SKC,-99.99,VWS V12.07,2013-10-08 04:45:00,
2013-10-07 23:50:00,45.4,44.0,30.02,NNE,30,0.0,0.0,95,0.00, +TSGR FG,SKC,-99.99,VWS V12.07,2013-10-08 04:50:00,
2013-10-07 23:55:00,45.3,44.0,30.02,NNE,30,0.0,0.0,95,0.00, +TSGR FG,SKC,-99.99,VWS V12.07,2013-10-08 04:55:00,